sensor_id;sensor_type;location;lat;lon;timestamp;pressure;altitude;pressure_sealevel;temperature;humidity
25610;BME280;13479;49.044;8.716;2023-12-20T05:01:49;99174.09;;;6.61;95.54
25610;BME280;13479;49.044;8.716;2023-12-20T05:04:15;99181.16;;;6.61;95.35
25610;BME280;13479;49.044;8.716;2023-12-20T05:06:41;99190.00;;;6.60;95.28
25610;BME280;13479;49.044;8.716;2023-12-20T05:09:06;99183.78;;;6.61;95.47
25610;BME280;13479;49.044;8.716;2023-12-20T05:11:31;99206.28;;;6.67;95.44
25610;BME280;13479;49.044;8.716;2023-12-20T05:13:56;99168.19;;;6.58;96.30
25610;BME280;13479;49.044;8.716;2023-12-20T05:16:22;99179.56;;;6.58;96.58
25610;BME280;13479;49.044;8.716;2023-12-20T05:18:48;99187.56;;;6.44;97.05
25610;BME280;13479;49.044;8.716;2023-12-20T05:21:15;99185.97;;;6.41;97.87
25610;BME280;13479;49.044;8.716;2023-12-20T05:23:40;99219.78;;;6.62;97.68
25610;BME280;13479;49.044;8.716;2023-12-20T05:26:06;99234.06;;;6.45;97.54
25610;BME280;13479;49.044;8.716;2023-12-20T05:28:31;99217.38;;;6.31;98.07
25610;BME280;13479;49.044;8.716;2023-12-20T05:30:56;99238.81;;;6.40;98.58
25610;BME280;13479;49.044;8.716;2023-12-20T05:33:22;99250.06;;;6.29;98.87
25610;BME280;13479;49.044;8.716;2023-12-20T05:35:47;99243.25;;;6.39;98.98
25610;BME280;13479;49.044;8.716;2023-12-20T05:38:12;99245.44;;;6.32;99.19
25610;BME280;13479;49.044;8.716;2023-12-20T05:40:38;99259.56;;;6.31;99.97
25610;BME280;13479;49.044;8.716;2023-12-20T05:43:03;99278.56;;;6.37;100.00
25610;BME280;13479;49.044;8.716;2023-12-20T05:45:28;99284.50;;;6.40;99.81
25610;BME280;13479;49.044;8.716;2023-12-20T05:47:54;99312.66;;;6.67;98.73
25610;BME280;13479;49.044;8.716;2023-12-20T05:50:19;99330.06;;;6.57;97.74
25610;BME280;13479;49.044;8.716;2023-12-20T05:52:46;99358.91;;;6.73;96.94
25610;BME280;13479;49.044;8.716;2023-12-20T05:55:11;99333.56;;;6.70;96.28
25610;BME280;13479;49.044;8.716;2023-12-20T05:57:36;99309.91;;;6.69;97.04
25610;BME280;13479;49.044;8.716;2023-12-20T06:00:02;99298.31;;;6.71;96.83
25610;BME280;13479;49.044;8.716;2023-12-20T06:02:28;99291.00;;;6.62;97.04
25610;BME280;13479;49.044;8.716;2023-12-20T06:04:53;99287.09;;;6.55;97.50
25610;BME280;13479;49.044;8.716;2023-12-20T06:07:19;99299.13;;;6.59;97.12
25610;BME280;13479;49.044;8.716;2023-12-20T06:09:44;99291.50;;;6.54;97.28
25610;BME280;13479;49.044;8.716;2023-12-20T06:12:10;99296.28;;;6.62;97.79
25610;BME280;13479;49.044;8.716;2023-12-20T06:14:35;99305.69;;;6.66;97.87
25610;BME280;13479;49.044;8.716;2023-12-20T06:17:00;99320.97;;;6.61;97.25
25610;BME280;13479;49.044;8.716;2023-12-20T06:19:26;99318.13;;;6.64;97.19
25610;BME280;13479;49.044;8.716;2023-12-20T06:21:51;99316.06;;;6.69;97.21
25610;BME280;13479;49.044;8.716;2023-12-20T06:24:17;99342.88;;;6.76;96.98
25610;BME280;13479;49.044;8.716;2023-12-20T06:26:42;99360.84;;;6.84;96.00
25610;BME280;13479;49.044;8.716;2023-12-20T06:29:07;99329.78;;;6.74;96.39
25610;BME280;13479;49.044;8.716;2023-12-20T06:31:33;99314.38;;;6.68;96.40
25610;BME280;13479;49.044;8.716;2023-12-20T06:33:58;99321.34;;;6.69;96.93
25610;BME280;13479;49.044;8.716;2023-12-20T06:36:25;99347.31;;;6.75;96.33
25610;BME280;13479;49.044;8.716;2023-12-20T06:38:50;99342.03;;;6.75;96.04
25610;BME280;13479;49.044;8.716;2023-12-20T06:41:16;99336.94;;;6.72;96.04
25610;BME280;13479;49.044;8.716;2023-12-20T06:43:41;99332.63;;;6.71;95.93
25610;BME280;13479;49.044;8.716;2023-12-20T06:46:07;99335.22;;;6.58;96.26
25610;BME280;13479;49.044;8.716;2023-12-20T06:48:32;99329.13;;;6.71;95.69
25610;BME280;13479;49.044;8.716;2023-12-20T06:51:00;99327.41;;;6.57;96.10
25610;BME280;13479;49.044;8.716;2023-12-20T06:53:25;99325.31;;;6.62;96.04
25610;BME280;13479;49.044;8.716;2023-12-20T06:55:50;99340.94;;;6.65;95.96
25610;BME280;13479;49.044;8.716;2023-12-20T06:58:15;99354.13;;;6.65;95.29
25610;BME280;13479;49.044;8.716;2023-12-20T07:00:41;99370.06;;;6.63;94.63
25610;BME280;13479;49.044;8.716;2023-12-20T07:03:06;99359.31;;;6.67;94.66
25610;BME280;13479;49.044;8.716;2023-12-20T07:05:32;99368.53;;;6.74;94.30
25610;BME280;13479;49.044;8.716;2023-12-20T07:07:58;99371.84;;;6.90;94.02
25610;BME280;13479;49.044;8.716;2023-12-20T07:10:23;99388.63;;;6.89;92.40
25610;BME280;13479;49.044;8.716;2023-12-20T07:12:48;99364.88;;;6.62;92.69
25610;BME280;13479;49.044;8.716;2023-12-20T07:15:14;99340.69;;;6.55;93.59
25610;BME280;13479;49.044;8.716;2023-12-20T07:17:39;99341.53;;;6.56;92.83
25610;BME280;13479;49.044;8.716;2023-12-20T07:20:05;99351.44;;;6.52;93.14
25610;BME280;13479;49.044;8.716;2023-12-20T07:22:33;99352.94;;;6.42;92.86
25610;BME280;13479;49.044;8.716;2023-12-20T07:24:59;99347.66;;;6.56;93.22
25610;BME280;13479;49.044;8.716;2023-12-20T07:27:24;99363.97;;;6.48;92.51
25610;BME280;13479;49.044;8.716;2023-12-20T07:29:50;99375.84;;;6.41;92.72
25610;BME280;13479;49.044;8.716;2023-12-20T07:32:15;99369.06;;;6.37;92.61
25610;BME280;13479;49.044;8.716;2023-12-20T07:34:41;99358.88;;;6.18;93.11
25610;BME280;13479;49.044;8.716;2023-12-20T07:37:06;99327.50;;;6.13;93.28
25610;BME280;13479;49.044;8.716;2023-12-20T07:39:31;99332.03;;;6.11;93.35
25610;BME280;13479;49.044;8.716;2023-12-20T07:41:56;99313.00;;;6.06;93.43
25610;BME280;13479;49.044;8.716;2023-12-20T07:44:22;99314.06;;;6.03;93.94
25610;BME280;13479;49.044;8.716;2023-12-20T07:46:47;99318.47;;;6.03;94.26
25610;BME280;13479;49.044;8.716;2023-12-20T07:49:13;99319.88;;;6.09;94.08
25610;BME280;13479;49.044;8.716;2023-12-20T07:51:39;99341.63;;;6.12;93.84
25610;BME280;13479;49.044;8.716;2023-12-20T07:54:04;99342.56;;;6.11;94.06
25610;BME280;13479;49.044;8.716;2023-12-20T07:56:29;99346.91;;;6.12;94.43
25610;BME280;13479;49.044;8.716;2023-12-20T07:58:55;99351.13;;;6.15;93.88
25610;BME280;13479;49.044;8.716;2023-12-20T08:01:20;99360.63;;;6.32;93.85
25610;BME280;13479;49.044;8.716;2023-12-20T08:03:45;99401.75;;;6.34;92.40
25610;BME280;13479;49.044;8.716;2023-12-20T08:06:11;99437.56;;;6.24;91.35
25610;BME280;13479;49.044;8.716;2023-12-20T08:08:36;99429.94;;;6.20;91.42
25610;BME280;13479;49.044;8.716;2023-12-20T08:11:02;99408.00;;;6.19;90.83
25610;BME280;13479;49.044;8.716;2023-12-20T08:13:28;99381.44;;;6.22;91.04
25610;BME280;13479;49.044;8.716;2023-12-20T08:15:53;99372.25;;;6.57;91.68
25610;BME280;13479;49.044;8.716;2023-12-20T08:18:19;99413.00;;;7.48;89.88
25610;BME280;13479;49.044;8.716;2023-12-20T08:20:44;99445.06;;;7.82;87.22
25610;BME280;13479;49.044;8.716;2023-12-20T08:23:09;99430.47;;;8.28;85.67
25610;BME280;13479;49.044;8.716;2023-12-20T08:25:35;99457.63;;;9.06;81.83
25610;BME280;13479;49.044;8.716;2023-12-20T08:28:02;99433.84;;;10.00;78.99
25610;BME280;13479;49.044;8.716;2023-12-20T08:30:28;99451.47;;;10.92;75.02
25610;BME280;13479;49.044;8.716;2023-12-20T08:32:53;99380.50;;;11.79;71.95
25610;BME280;13479;49.044;8.716;2023-12-20T08:35:18;99295.88;;;12.34;67.44
25610;BME280;13479;49.044;8.716;2023-12-20T08:37:44;99243.19;;;13.07;64.51
25610;BME280;13479;49.044;8.716;2023-12-20T08:40:09;99219.75;;;13.68;62.20
25610;BME280;13479;49.044;8.716;2023-12-20T08:42:35;99222.78;;;14.19;59.22
25610;BME280;13479;49.044;8.716;2023-12-20T08:45:00;99216.66;;;14.55;57.67
25610;BME280;13479;49.044;8.716;2023-12-20T08:47:25;99215.06;;;15.06;55.85
25610;BME280;13479;49.044;8.716;2023-12-20T08:49:52;99220.06;;;15.62;53.51
25610;BME280;13479;49.044;8.716;2023-12-20T08:52:21;99221.13;;;15.43;51.80
25610;BME280;13479;49.044;8.716;2023-12-20T08:54:47;99234.38;;;15.44;51.72
25610;BME280;13479;49.044;8.716;2023-12-20T08:57:12;99240.44;;;15.55;51.24
25610;BME280;13479;49.044;8.716;2023-12-20T08:59:37;99257.69;;;15.60;49.01
25610;BME280;13479;49.044;8.716;2023-12-20T09:02:03;99265.00;;;16.19;48.16
25610;BME280;13479;49.044;8.716;2023-12-20T09:04:28;99264.53;;;16.41;47.08
25610;BME280;13479;49.044;8.716;2023-12-20T09:06:54;99274.31;;;16.75;46.55
25610;BME280;13479;49.044;8.716;2023-12-20T09:09:19;99293.16;;;17.16;44.70
25610;BME280;13479;49.044;8.716;2023-12-20T09:11:44;99303.13;;;16.73;44.14
25610;BME280;13479;49.044;8.716;2023-12-20T09:14:12;99305.66;;;16.66;43.75
25610;BME280;13479;49.044;8.716;2023-12-20T09:16:37;99322.75;;;16.65;43.08
25610;BME280;13479;49.044;8.716;2023-12-20T09:19:02;99331.09;;;16.54;42.65
25610;BME280;13479;49.044;8.716;2023-12-20T09:21:28;99340.38;;;16.33;42.98
25610;BME280;13479;49.044;8.716;2023-12-20T09:23:53;99335.16;;;16.23;43.02
25610;BME280;13479;49.044;8.716;2023-12-20T09:26:18;99331.91;;;16.46;42.30
25610;BME280;13479;49.044;8.716;2023-12-20T09:28:43;99341.28;;;16.50;41.80
25610;BME280;13479;49.044;8.716;2023-12-20T09:31:08;99338.66;;;16.15;42.21
25610;BME280;13479;49.044;8.716;2023-12-20T09:33:34;99334.25;;;16.06;42.47
25610;BME280;13479;49.044;8.716;2023-12-20T09:35:59;99319.72;;;16.17;42.97
25610;BME280;13479;49.044;8.716;2023-12-20T09:38:24;99331.00;;;16.29;42.45
25610;BME280;13479;49.044;8.716;2023-12-20T09:40:50;99331.91;;;16.46;42.13
25610;BME280;13479;49.044;8.716;2023-12-20T09:43:19;99348.38;;;16.67;41.39
25610;BME280;13479;49.044;8.716;2023-12-20T09:45:47;99344.69;;;16.68;41.66
25610;BME280;13479;49.044;8.716;2023-12-20T09:48:13;99347.56;;;16.75;41.64
25610;BME280;13479;49.044;8.716;2023-12-20T09:50:41;99359.19;;;17.01;41.28
25610;BME280;13479;49.044;8.716;2023-12-20T09:53:08;99353.81;;;17.17;41.03
25610;BME280;13479;49.044;8.716;2023-12-20T09:55:36;99361.72;;;17.43;40.53
25610;BME280;13479;49.044;8.716;2023-12-20T09:58:01;99377.78;;;17.77;40.19
25610;BME280;13479;49.044;8.716;2023-12-20T10:00:26;99370.75;;;17.59;40.29
25610;BME280;13479;49.044;8.716;2023-12-20T10:02:59;99354.00;;;17.40;40.28
25610;BME280;13479;49.044;8.716;2023-12-20T10:05:29;99368.56;;;17.63;39.97
25610;BME280;13479;49.044;8.716;2023-12-20T10:07:55;99375.91;;;16.94;39.84
25610;BME280;13479;49.044;8.716;2023-12-20T10:10:20;99374.41;;;16.41;40.45
25610;BME280;13479;49.044;8.716;2023-12-20T10:13:05;99342.69;;;15.40;41.76
25610;BME280;13479;49.044;8.716;2023-12-20T10:15:32;99313.59;;;14.65;43.68
25610;BME280;13479;49.044;8.716;2023-12-20T10:17:58;99291.78;;;13.96;45.14
25610;BME280;13479;49.044;8.716;2023-12-20T10:20:24;99276.25;;;13.24;46.28
25610;BME280;13479;49.044;8.716;2023-12-20T10:22:49;99268.31;;;12.94;48.25
25610;BME280;13479;49.044;8.716;2023-12-20T10:25:14;99244.75;;;12.60;48.87
25610;BME280;13479;49.044;8.716;2023-12-20T10:27:40;99237.59;;;12.51;49.33
25610;BME280;13479;49.044;8.716;2023-12-20T10:30:05;99224.38;;;12.10;50.45
25610;BME280;13479;49.044;8.716;2023-12-20T10:32:31;99217.56;;;11.46;52.21
25610;BME280;13479;49.044;8.716;2023-12-20T10:34:56;99203.88;;;11.19;52.80
25610;BME280;13479;49.044;8.716;2023-12-20T10:37:22;99194.19;;;11.08;53.26
25610;BME280;13479;49.044;8.716;2023-12-20T10:39:50;99185.38;;;10.65;54.89
25610;BME280;13479;49.044;8.716;2023-12-20T10:42:16;99191.91;;;10.29;56.41
25610;BME280;13479;49.044;8.716;2023-12-20T10:44:42;99187.28;;;9.98;57.50
25610;BME280;13479;49.044;8.716;2023-12-20T10:47:09;99179.75;;;9.82;58.64
25610;BME280;13479;49.044;8.716;2023-12-20T10:49:36;99171.31;;;9.66;58.65
25610;BME280;13479;49.044;8.716;2023-12-20T10:52:02;99162.81;;;9.17;60.48
25610;BME280;13479;49.044;8.716;2023-12-20T10:54:28;99166.41;;;9.16;61.08
25610;BME280;13479;49.044;8.716;2023-12-20T10:56:54;99166.78;;;9.11;61.35
25610;BME280;13479;49.044;8.716;2023-12-20T10:59:20;99154.59;;;8.86;61.93
25610;BME280;13479;49.044;8.716;2023-12-20T11:01:48;99151.56;;;8.68;62.65
25610;BME280;13479;49.044;8.716;2023-12-20T11:04:19;99154.56;;;8.63;63.07
25610;BME280;13479;49.044;8.716;2023-12-20T11:06:57;99140.38;;;8.40;63.90
25610;BME280;13479;49.044;8.716;2023-12-20T11:09:34;99145.66;;;8.40;64.06
25610;BME280;13479;49.044;8.716;2023-12-20T11:12:15;99120.59;;;8.21;65.33
25610;BME280;13479;49.044;8.716;2023-12-20T11:14:52;99105.63;;;8.09;65.63
25610;BME280;13479;49.044;8.716;2023-12-20T11:17:19;99097.06;;;7.94;66.33
25610;BME280;13479;49.044;8.716;2023-12-20T11:22:25;99094.41;;;7.94;67.24
25610;BME280;13479;49.044;8.716;2023-12-20T11:24:52;99107.06;;;8.01;66.66
25610;BME280;13479;49.044;8.716;2023-12-20T11:27:19;99114.47;;;8.21;66.42
25610;BME280;13479;49.044;8.716;2023-12-20T11:29:52;99120.38;;;8.24;66.09
25610;BME280;13479;49.044;8.716;2023-12-20T11:34:51;99126.75;;;8.22;65.26
25610;BME280;13479;49.044;8.716;2023-12-20T11:37:16;99149.25;;;8.27;64.99
25610;BME280;13479;49.044;8.716;2023-12-20T11:39:44;99178.03;;;8.43;63.91
25610;BME280;13479;49.044;8.716;2023-12-20T11:42:10;99167.06;;;8.37;64.76
25610;BME280;13479;49.044;8.716;2023-12-20T11:44:39;99161.31;;;8.43;64.39
25610;BME280;13479;49.044;8.716;2023-12-20T11:47:04;99172.75;;;8.43;64.57
25610;BME280;13479;49.044;8.716;2023-12-20T11:49:29;99162.72;;;8.60;64.64
25610;BME280;13479;49.044;8.716;2023-12-20T11:51:56;99170.56;;;8.73;64.30
25610;BME280;13479;49.044;8.716;2023-12-20T11:54:21;99200.69;;;8.83;63.57
25610;BME280;13479;49.044;8.716;2023-12-20T11:56:47;99192.66;;;8.49;65.16
25610;BME280;13479;49.044;8.716;2023-12-20T11:59:13;99124.28;;;8.43;66.35
25610;BME280;13479;49.044;8.716;2023-12-20T12:01:38;99122.19;;;8.59;66.51
25610;BME280;13479;49.044;8.716;2023-12-20T12:04:06;99109.94;;;8.45;67.10
25610;BME280;13479;49.044;8.716;2023-12-20T12:06:32;99097.44;;;8.36;68.14
25610;BME280;13479;49.044;8.716;2023-12-20T12:08:57;99117.63;;;8.01;68.25
25610;BME280;13479;49.044;8.716;2023-12-20T12:11:23;99117.38;;;7.93;69.07
25610;BME280;13479;49.044;8.716;2023-12-20T12:13:48;99117.69;;;7.64;70.94
25610;BME280;13479;49.044;8.716;2023-12-20T12:16:17;99119.59;;;7.62;72.42
25610;BME280;13479;49.044;8.716;2023-12-20T12:18:44;99127.09;;;7.93;72.17
25610;BME280;13479;49.044;8.716;2023-12-20T12:21:09;99124.91;;;7.86;72.98
25610;BME280;13479;49.044;8.716;2023-12-20T12:23:34;99118.53;;;7.89;72.98
25610;BME280;13479;49.044;8.716;2023-12-20T12:26:03;99117.84;;;7.98;72.88
25610;BME280;13479;49.044;8.716;2023-12-20T12:28:29;99145.44;;;8.07;71.76
25610;BME280;13479;49.044;8.716;2023-12-20T12:30:59;99138.75;;;8.26;71.85
25610;BME280;13479;49.044;8.716;2023-12-20T12:33:25;99138.22;;;8.45;71.62
25610;BME280;13479;49.044;8.716;2023-12-20T12:35:51;99189.06;;;8.37;70.91
25610;BME280;13479;49.044;8.716;2023-12-20T12:38:20;99200.50;;;8.62;70.73
25610;BME280;13479;49.044;8.716;2023-12-20T12:40:45;99235.34;;;8.56;69.65
25610;BME280;13479;49.044;8.716;2023-12-20T12:43:11;99265.38;;;8.68;69.10
25610;BME280;13479;49.044;8.716;2023-12-20T12:45:37;99250.91;;;8.60;69.37
25610;BME280;13479;49.044;8.716;2023-12-20T12:48:02;99245.88;;;8.69;69.04
25610;BME280;13479;49.044;8.716;2023-12-20T12:50:27;99237.38;;;8.52;69.40
25610;BME280;13479;49.044;8.716;2023-12-20T12:52:53;99265.31;;;8.56;68.24
25610;BME280;13479;49.044;8.716;2023-12-20T12:55:19;99253.63;;;8.34;68.43
25610;BME280;13479;49.044;8.716;2023-12-20T12:57:44;99255.69;;;8.55;67.60
25610;BME280;13479;49.044;8.716;2023-12-20T13:00:10;99255.13;;;8.39;68.15
25610;BME280;13479;49.044;8.716;2023-12-20T13:02:36;99239.41;;;8.24;68.61
25610;BME280;13479;49.044;8.716;2023-12-20T13:05:03;99227.75;;;8.02;68.84
25610;BME280;13479;49.044;8.716;2023-12-20T13:07:29;99187.88;;;7.93;69.84
25610;BME280;13479;49.044;8.716;2023-12-20T13:09:55;99165.91;;;7.92;69.34
25610;BME280;13479;49.044;8.716;2023-12-20T13:12:20;99175.22;;;7.85;69.20
25610;BME280;13479;49.044;8.716;2023-12-20T13:14:46;99206.19;;;7.83;68.48
25610;BME280;13479;49.044;8.716;2023-12-20T13:17:12;99210.91;;;7.66;68.79
25610;BME280;13479;49.044;8.716;2023-12-20T13:19:37;99200.34;;;7.66;69.22
25610;BME280;13479;49.044;8.716;2023-12-20T13:22:03;99184.50;;;7.66;68.96
25610;BME280;13479;49.044;8.716;2023-12-20T13:24:28;99167.59;;;7.56;69.34
25610;BME280;13479;49.044;8.716;2023-12-20T13:26:54;99172.22;;;7.65;68.97
25610;BME280;13479;49.044;8.716;2023-12-20T13:29:19;99169.50;;;7.54;69.35
25610;BME280;13479;49.044;8.716;2023-12-20T13:31:45;99174.59;;;7.57;68.85
25610;BME280;13479;49.044;8.716;2023-12-20T13:34:10;99165.91;;;7.55;69.44
25610;BME280;13479;49.044;8.716;2023-12-20T13:36:35;99126.94;;;7.46;70.59
25610;BME280;13479;49.044;8.716;2023-12-20T13:39:01;99113.53;;;7.36;70.84
25610;BME280;13479;49.044;8.716;2023-12-20T13:41:28;99126.41;;;7.53;70.25
25610;BME280;13479;49.044;8.716;2023-12-20T13:43:53;99136.03;;;7.41;70.68
25610;BME280;13479;49.044;8.716;2023-12-20T13:46:19;99113.47;;;7.37;71.30
25610;BME280;13479;49.044;8.716;2023-12-20T13:48:44;99097.59;;;7.37;71.31
25610;BME280;13479;49.044;8.716;2023-12-20T13:51:10;99109.13;;;7.36;70.97
25610;BME280;13479;49.044;8.716;2023-12-20T13:53:35;99123.63;;;7.31;70.71
25610;BME280;13479;49.044;8.716;2023-12-20T13:56:00;99104.38;;;7.16;71.63
25610;BME280;13479;49.044;8.716;2023-12-20T13:58:26;99076.75;;;7.08;72.15
25610;BME280;13479;49.044;8.716;2023-12-20T14:00:51;99075.06;;;7.07;72.64
25610;BME280;13479;49.044;8.716;2023-12-20T14:03:16;99080.41;;;7.19;72.78
25610;BME280;13479;49.044;8.716;2023-12-20T14:05:42;99082.72;;;7.23;72.92
25610;BME280;13479;49.044;8.716;2023-12-20T14:08:07;99086.66;;;7.18;73.76
25610;BME280;13479;49.044;8.716;2023-12-20T14:10:33;99094.31;;;7.34;73.55
25610;BME280;13479;49.044;8.716;2023-12-20T14:12:58;99101.94;;;7.25;73.42
25610;BME280;13479;49.044;8.716;2023-12-20T14:15:24;99116.31;;;7.34;73.22
25610;BME280;13479;49.044;8.716;2023-12-20T14:17:50;99121.91;;;7.30;72.97
25610;BME280;13479;49.044;8.716;2023-12-20T14:20:16;99102.28;;;7.21;73.77
25610;BME280;13479;49.044;8.716;2023-12-20T14:22:43;99088.25;;;7.07;74.65
25610;BME280;13479;49.044;8.716;2023-12-20T14:25:12;99105.78;;;7.08;74.70
25610;BME280;13479;49.044;8.716;2023-12-20T14:27:38;99103.88;;;7.10;74.98
25610;BME280;13479;49.044;8.716;2023-12-20T14:30:05;99100.88;;;7.28;74.70
25610;BME280;13479;49.044;8.716;2023-12-20T14:32:31;99096.38;;;7.17;75.15
25610;BME280;13479;49.044;8.716;2023-12-20T14:34:57;99108.31;;;7.23;75.02
25610;BME280;13479;49.044;8.716;2023-12-20T14:37:22;99117.19;;;7.22;74.81
25610;BME280;13479;49.044;8.716;2023-12-20T14:39:47;99106.13;;;7.04;75.01
25610;BME280;13479;49.044;8.716;2023-12-20T14:42:12;99087.66;;;6.91;75.58
25610;BME280;13479;49.044;8.716;2023-12-20T14:44:41;99101.06;;;6.88;75.75
25610;BME280;13479;49.044;8.716;2023-12-20T14:47:07;99088.06;;;6.85;76.08
25610;BME280;13479;49.044;8.716;2023-12-20T14:49:32;99095.88;;;6.73;75.99
25610;BME280;13479;49.044;8.716;2023-12-20T14:51:58;99112.59;;;6.74;76.22
25610;BME280;13479;49.044;8.716;2023-12-20T14:54:23;99127.16;;;6.79;76.44
25610;BME280;13479;49.044;8.716;2023-12-20T14:56:48;99126.91;;;6.83;76.17
25610;BME280;13479;49.044;8.716;2023-12-20T14:59:15;99121.22;;;6.89;76.57
25610;BME280;13479;49.044;8.716;2023-12-20T15:01:40;99109.38;;;6.82;77.49
25610;BME280;13479;49.044;8.716;2023-12-20T15:04:09;99114.91;;;6.78;77.96
25610;BME280;13479;49.044;8.716;2023-12-20T15:06:34;99111.28;;;6.67;79.27
25610;BME280;13479;49.044;8.716;2023-12-20T15:08:59;99107.72;;;6.55;80.09
25610;BME280;13479;49.044;8.716;2023-12-20T15:11:25;99108.66;;;6.54;80.17
25610;BME280;13479;49.044;8.716;2023-12-20T15:13:51;99095.88;;;6.47;80.64
25610;BME280;13479;49.044;8.716;2023-12-20T15:16:24;99095.03;;;6.34;81.33
25610;BME280;13479;49.044;8.716;2023-12-20T15:18:50;99097.31;;;6.26;81.40
25610;BME280;13479;49.044;8.716;2023-12-20T15:21:15;99086.56;;;6.16;81.87
25610;BME280;13479;49.044;8.716;2023-12-20T15:23:41;99087.59;;;6.00;82.21
25610;BME280;13479;49.044;8.716;2023-12-20T15:26:17;99106.72;;;5.90;82.61
25610;BME280;13479;49.044;8.716;2023-12-20T15:28:42;99110.84;;;5.66;83.04
25610;BME280;13479;49.044;8.716;2023-12-20T15:31:08;99112.19;;;5.59;83.73
25610;BME280;13479;49.044;8.716;2023-12-20T15:33:33;99123.66;;;5.58;84.39
25610;BME280;13479;49.044;8.716;2023-12-20T15:35:59;99114.25;;;5.54;84.76
25610;BME280;13479;49.044;8.716;2023-12-20T15:38:24;99111.38;;;5.44;84.92
25610;BME280;13479;49.044;8.716;2023-12-20T15:40:49;99112.94;;;5.61;84.86
25610;BME280;13479;49.044;8.716;2023-12-20T15:43:14;99116.25;;;5.50;84.74
25610;BME280;13479;49.044;8.716;2023-12-20T15:45:40;99117.44;;;5.59;84.74
25610;BME280;13479;49.044;8.716;2023-12-20T15:48:05;99111.88;;;5.64;85.05
25610;BME280;13479;49.044;8.716;2023-12-20T15:50:30;99130.97;;;5.67;85.15
25610;BME280;13479;49.044;8.716;2023-12-20T15:52:56;99125.59;;;5.69;84.57
25610;BME280;13479;49.044;8.716;2023-12-20T15:55:21;99131.97;;;5.79;84.72
25610;BME280;13479;49.044;8.716;2023-12-20T15:57:46;99156.88;;;5.88;84.51
25610;BME280;13479;49.044;8.716;2023-12-20T16:00:12;99142.16;;;5.98;84.25
25610;BME280;13479;49.044;8.716;2023-12-20T16:02:37;99173.00;;;6.11;83.55
25610;BME280;13479;49.044;8.716;2023-12-20T16:05:02;99203.53;;;6.28;82.79
25610;BME280;13479;49.044;8.716;2023-12-20T16:07:28;99218.84;;;6.23;82.64
25610;BME280;13479;49.044;8.716;2023-12-20T16:09:53;99214.66;;;6.33;81.72
25610;BME280;13479;49.044;8.716;2023-12-20T16:12:18;99249.47;;;6.38;80.79
25610;BME280;13479;49.044;8.716;2023-12-20T16:14:43;99233.63;;;6.38;80.17
25610;BME280;13479;49.044;8.716;2023-12-20T16:17:09;99233.09;;;6.33;80.51
25610;BME280;13479;49.044;8.716;2023-12-20T16:19:34;99212.22;;;6.43;79.95
25610;BME280;13479;49.044;8.716;2023-12-20T16:22:00;99231.41;;;6.32;79.12
25610;BME280;13479;49.044;8.716;2023-12-20T16:24:25;99223.81;;;6.27;79.15
25610;BME280;13479;49.044;8.716;2023-12-20T16:26:50;99195.19;;;6.21;79.65
25610;BME280;13479;49.044;8.716;2023-12-20T16:29:16;99182.31;;;6.16;79.45
25610;BME280;13479;49.044;8.716;2023-12-20T16:31:41;99206.59;;;6.22;78.95
25610;BME280;13479;49.044;8.716;2023-12-20T16:34:06;99174.69;;;6.12;79.73
25610;BME280;13479;49.044;8.716;2023-12-20T16:36:48;99150.16;;;6.11;79.50
25610;BME280;13479;49.044;8.716;2023-12-20T16:39:14;99168.19;;;6.17;79.35
25610;BME280;13479;49.044;8.716;2023-12-20T16:41:39;99190.34;;;6.28;78.43
25610;BME280;13479;49.044;8.716;2023-12-20T16:44:05;99195.41;;;6.18;78.73
25610;BME280;13479;49.044;8.716;2023-12-20T16:46:30;99189.38;;;6.16;78.79
25610;BME280;13479;49.044;8.716;2023-12-20T16:48:56;99185.50;;;6.22;78.51
25610;BME280;13479;49.044;8.716;2023-12-20T16:51:21;99191.56;;;6.09;79.11
25610;BME280;13479;49.044;8.716;2023-12-20T16:53:47;99222.00;;;6.28;78.01
25610;BME280;13479;49.044;8.716;2023-12-20T16:56:13;99218.59;;;6.26;78.13
25610;BME280;13479;49.044;8.716;2023-12-20T16:58:38;99217.81;;;6.38;77.75
25610;BME280;13479;49.044;8.716;2023-12-20T17:01:03;99240.44;;;6.55;76.83
25610;BME280;13479;49.044;8.716;2023-12-20T17:03:30;99260.72;;;6.55;76.03
25610;BME280;13479;49.044;8.716;2023-12-20T17:05:55;99241.31;;;6.56;75.89
25610;BME280;13479;49.044;8.716;2023-12-20T17:08:20;99245.41;;;6.60;75.46
25610;BME280;13479;49.044;8.716;2023-12-20T17:10:47;99209.41;;;6.59;75.99
25610;BME280;13479;49.044;8.716;2023-12-20T17:13:12;99200.88;;;6.55;75.90
25610;BME280;13479;49.044;8.716;2023-12-20T17:15:38;99176.09;;;6.71;75.95
25610;BME280;13479;49.044;8.716;2023-12-20T17:18:05;99196.34;;;6.70;75.63
25610;BME280;13479;49.044;8.716;2023-12-20T17:20:31;99196.69;;;6.78;75.42
25610;BME280;13479;49.044;8.716;2023-12-20T17:22:56;99223.59;;;6.84;75.17
25610;BME280;13479;49.044;8.716;2023-12-20T17:25:21;99218.34;;;6.84;74.98
25610;BME280;13479;49.044;8.716;2023-12-20T17:27:48;99205.88;;;6.86;74.94
25610;BME280;13479;49.044;8.716;2023-12-20T17:30:13;99185.72;;;6.85;74.84
25610;BME280;13479;49.044;8.716;2023-12-20T17:32:39;99220.69;;;7.01;73.62
25610;BME280;13479;49.044;8.716;2023-12-20T17:35:05;99195.00;;;6.90;74.30
25610;BME280;13479;49.044;8.716;2023-12-20T17:37:30;99183.31;;;6.94;74.25
25610;BME280;13479;49.044;8.716;2023-12-20T17:39:55;99205.13;;;6.84;73.56
25610;BME280;13479;49.044;8.716;2023-12-20T17:42:21;99176.03;;;6.85;74.08
25610;BME280;13479;49.044;8.716;2023-12-20T17:44:46;99172.19;;;6.89;73.99
25610;BME280;13479;49.044;8.716;2023-12-20T17:47:11;99202.41;;;6.98;73.10
25610;BME280;13479;49.044;8.716;2023-12-20T17:49:36;99165.56;;;6.84;74.01
25610;BME280;13479;49.044;8.716;2023-12-20T17:52:02;99128.59;;;6.84;74.62
25610;BME280;13479;49.044;8.716;2023-12-20T17:54:27;99127.03;;;6.81;74.59
25610;BME280;13479;49.044;8.716;2023-12-20T17:56:54;99143.59;;;6.96;73.94
25610;BME280;13479;49.044;8.716;2023-12-20T17:59:21;99161.44;;;6.92;73.64
25610;BME280;13479;49.044;8.716;2023-12-20T18:01:47;99177.41;;;6.91;73.84
25610;BME280;13479;49.044;8.716;2023-12-20T18:04:13;99205.28;;;7.08;72.95
25610;BME280;13479;49.044;8.716;2023-12-20T18:06:39;99255.75;;;7.03;72.16
25610;BME280;13479;49.044;8.716;2023-12-20T18:09:04;99224.47;;;6.97;71.73